createdAt,value
2023-01-25T00:01:32.529Z,18.15
2023-01-25T00:04:22.725Z,21.20
2023-01-25T00:07:09.588Z,18.20
2023-01-25T00:09:58.998Z,20.88
2023-01-25T00:12:45.288Z,22.25
2023-01-25T00:15:32.071Z,17.90
2023-01-25T00:18:18.640Z,17.00
2023-01-25T00:21:20.144Z,17.77
2023-01-25T00:24:07.003Z,19.52
2023-01-25T00:26:53.787Z,21.42
2023-01-25T00:29:40.266Z,17.40
2023-01-25T00:32:42.561Z,18.00
2023-01-25T00:35:35.404Z,16.33
2023-01-25T00:38:29.957Z,18.98
2023-01-25T00:41:16.148Z,18.35
2023-01-25T00:44:03.017Z,17.58
2023-01-25T00:46:49.302Z,18.60
2023-01-25T00:49:35.964Z,16.15
2023-01-25T00:52:25.224Z,14.23
2023-01-25T00:55:11.892Z,14.18
2023-01-25T00:57:58.515Z,16.08
2023-01-25T01:00:45.469Z,19.67
2023-01-25T01:03:31.769Z,18.92
2023-01-25T01:06:18.286Z,16.65
2023-01-25T01:09:06.826Z,15.32
2023-01-25T01:11:54.309Z,17.17
2023-01-25T01:14:40.507Z,14.90
2023-01-25T01:17:26.843Z,9.13
2023-01-25T01:20:13.782Z,9.88
2023-01-25T01:23:03.682Z,13.25
2023-01-25T01:25:50.881Z,13.10
2023-01-25T01:28:39.702Z,15.35
2023-01-25T01:31:26.388Z,17.45
2023-01-25T01:34:31.273Z,15.73
2023-01-25T01:37:17.843Z,16.42
2023-01-25T01:40:04.795Z,15.63
2023-01-25T01:43:02.429Z,14.82
2023-01-25T01:45:55.238Z,13.38
2023-01-25T01:48:55.972Z,14.52
2023-01-25T01:51:59.542Z,14.30
2023-01-25T01:55:10.692Z,13.88
2023-01-25T01:57:59.722Z,15.75
2023-01-25T02:00:45.978Z,15.82
2023-01-25T02:03:33.563Z,15.52
2023-01-25T02:06:31.989Z,13.77
2023-01-25T02:09:20.158Z,18.00
2023-01-25T02:12:08.254Z,15.85
2023-01-25T02:14:57.408Z,15.77
2023-01-25T02:17:43.886Z,14.82
2023-01-25T02:20:44.501Z,14.95
2023-01-25T02:23:48.213Z,16.92
2023-01-25T02:26:35.071Z,14.40
2023-01-25T02:29:24.332Z,16.55
2023-01-25T02:32:13.775Z,17.05
2023-01-25T02:35:00.153Z,16.27
2023-01-25T02:37:47.199Z,15.25
2023-01-25T02:40:49.563Z,18.30
2023-01-25T02:43:38.097Z,16.60
2023-01-25T02:46:31.230Z,18.33
2023-01-25T02:49:19.005Z,17.05
2023-01-25T02:52:07.285Z,18.27
2023-01-25T02:54:54.755Z,16.15
2023-01-25T02:57:41.351Z,15.32
2023-01-25T03:00:29.479Z,18.77
2023-01-25T03:03:17.105Z,14.63
2023-01-25T03:06:04.907Z,11.52
2023-01-25T03:08:51.661Z,12.10
2023-01-25T03:11:38.943Z,14.05
2023-01-25T03:14:25.444Z,12.05
2023-01-25T03:17:12.142Z,9.80
2023-01-25T03:19:58.908Z,12.70
2023-01-25T03:22:46.582Z,10.77
2023-01-25T03:25:33.038Z,12.23
2023-01-25T03:28:32.982Z,11.57
2023-01-25T03:31:19.557Z,14.25
2023-01-25T03:34:06.388Z,13.05
2023-01-25T03:36:57.253Z,14.68
2023-01-25T03:39:44.071Z,15.77
2023-01-25T03:42:36.595Z,15.20
2023-01-25T03:45:23.939Z,15.77
2023-01-25T03:48:13.626Z,15.50
2023-01-25T03:51:04.455Z,15.20
2023-01-25T03:53:50.636Z,13.43
2023-01-25T03:56:38.447Z,15.18
2023-01-25T03:59:36.706Z,17.25
2023-01-25T04:02:27.271Z,18.08
2023-01-25T04:08:02.195Z,16.67
2023-01-25T04:10:57.249Z,18.50
2023-01-25T04:13:44.618Z,16.92
2023-01-25T04:16:33.055Z,17.10
2023-01-25T04:19:36.875Z,14.73
2023-01-25T04:22:25.054Z,16.30
2023-01-25T04:25:14.101Z,12.60
2023-01-25T04:28:07.392Z,14.50
2023-01-25T04:30:55.546Z,15.07
2023-01-25T04:33:44.464Z,15.73
2023-01-25T04:36:32.625Z,15.95
2023-01-25T04:39:19.883Z,13.32
2023-01-25T04:42:07.503Z,17.50
2023-01-25T04:44:53.938Z,15.60
2023-01-25T04:47:40.512Z,18.48
2023-01-25T04:50:28.486Z,16.88
2023-01-25T04:53:15.553Z,16.27
2023-01-25T04:56:02.962Z,17.85
2023-01-25T04:58:54.142Z,17.65
2023-01-25T05:01:41.943Z,16.70
2023-01-25T05:04:29.251Z,15.93
2023-01-25T05:07:15.684Z,17.52
2023-01-25T05:10:03.058Z,16.45
2023-01-25T05:12:49.894Z,15.75
2023-01-25T05:15:36.728Z,14.27
2023-01-25T05:18:23.534Z,12.75
2023-01-25T05:21:30.559Z,14.80
2023-01-25T05:24:17.919Z,13.05
2023-01-25T05:27:04.666Z,13.75
2023-01-25T05:30:11.820Z,14.25
2023-01-25T05:33:10.116Z,16.02
2023-01-25T05:35:56.604Z,15.18
2023-01-25T05:38:43.894Z,17.23
2023-01-25T05:41:32.068Z,16.33
2023-01-25T05:44:18.892Z,17.50
2023-01-25T05:47:07.885Z,18.73
2023-01-25T05:49:55.695Z,19.25
2023-01-25T05:52:55.482Z,22.13
2023-01-25T05:55:42.573Z,25.65
2023-01-25T05:58:33.831Z,27.95
2023-01-25T06:01:21.571Z,23.88
2023-01-25T06:04:16.674Z,26.48
2023-01-25T06:07:03.409Z,22.42
2023-01-25T06:09:50.959Z,36.30
2023-01-25T06:12:40.722Z,25.10
2023-01-25T06:15:27.083Z,30.00
2023-01-25T06:18:21.250Z,28.13
2023-01-25T06:21:25.275Z,32.97
2023-01-25T06:24:12.335Z,35.03
2023-01-25T06:26:58.988Z,38.30
2023-01-25T06:29:45.756Z,32.10
2023-01-25T06:32:34.674Z,22.10
2023-01-25T06:35:21.493Z,28.30
2023-01-25T06:38:10.681Z,32.97
2023-01-25T06:41:00.372Z,31.05
2023-01-25T06:43:48.176Z,28.08
2023-01-25T06:46:35.379Z,28.08
2023-01-25T06:49:21.845Z,23.30
2023-01-25T06:52:08.406Z,27.00
2023-01-25T06:54:55.037Z,30.15
2023-01-25T06:57:48.279Z,31.50
2023-01-25T07:00:40.392Z,29.67
2023-01-25T07:03:27.110Z,28.88
2023-01-25T07:06:13.566Z,29.48
2023-01-25T07:09:05.819Z,29.45
2023-01-25T07:11:55.487Z,33.03
2023-01-25T07:14:42.513Z,32.95
2023-01-25T07:17:28.756Z,29.30
2023-01-25T07:20:15.769Z,27.75
2023-01-25T07:23:02.373Z,34.13
2023-01-25T07:25:50.632Z,33.20
2023-01-25T07:28:39.620Z,28.17
2023-01-25T07:31:28.910Z,42.38
2023-01-25T07:34:15.057Z,35.28
2023-01-25T07:37:01.626Z,32.47
2023-01-25T07:39:50.688Z,24.02
2023-01-25T07:42:37.621Z,26.83
2023-01-25T07:45:31.570Z,19.08
2023-01-25T07:48:19.744Z,29.30
2023-01-25T07:51:27.204Z,82.60
2023-01-25T07:54:13.651Z,62.08
2023-01-25T07:56:59.997Z,51.72
2023-01-25T07:59:46.950Z,49.28
2023-01-25T08:02:33.876Z,262.98
2023-01-25T08:05:20.764Z,169.40
2023-01-25T08:08:07.294Z,56.55
2023-01-25T08:10:54.088Z,96.28
2023-01-25T08:13:41.447Z,81.97
2023-01-25T08:16:28.393Z,72.95
2023-01-25T08:19:15.040Z,157.05
2023-01-25T08:22:01.590Z,252.68
2023-01-25T08:24:48.341Z,148.95
2023-01-25T08:27:34.667Z,61.13
2023-01-25T08:30:21.031Z,269.33
2023-01-25T08:33:07.960Z,85.32
2023-01-25T08:35:56.780Z,73.55
2023-01-25T08:38:43.465Z,284.67
2023-01-25T08:41:32.471Z,99.40
2023-01-25T08:44:24.267Z,33.58
2023-01-25T08:47:11.729Z,36.92
2023-01-25T08:50:01.142Z,82.88
2023-01-25T08:52:47.098Z,82.63
2023-01-25T08:55:36.134Z,108.50
2023-01-25T08:58:22.841Z,40.13
2023-01-25T09:01:15.913Z,96.63
2023-01-25T09:04:02.338Z,34.10
2023-01-25T09:06:49.320Z,25.60
2023-01-25T09:09:37.921Z,36.72
2023-01-25T09:12:24.753Z,99.57
2023-01-25T09:15:11.560Z,75.63
2023-01-25T09:17:58.395Z,45.25
2023-01-25T09:20:44.870Z,28.30
2023-01-25T09:23:31.720Z,54.05
2023-01-25T09:26:19.806Z,42.13
2023-01-25T09:29:08.308Z,31.58
2023-01-25T09:31:57.638Z,23.50
2023-01-25T09:34:50.770Z,29.83
2023-01-25T09:37:37.246Z,28.02
2023-01-25T09:40:25.889Z,352.17
2023-01-25T09:43:36.449Z,113.20
2023-01-25T09:46:27.809Z,42.67
2023-01-25T09:49:35.988Z,55.85
2023-01-25T09:53:04.342Z,46.63
2023-01-25T09:56:00.138Z,34.15
2023-01-25T09:58:49.298Z,43.90
2023-01-25T10:01:45.822Z,57.10
2023-01-25T10:04:39.775Z,46.08
2023-01-25T10:07:30.870Z,21.00
2023-01-25T10:10:22.117Z,27.20
2023-01-25T10:13:19.022Z,34.70
2023-01-25T10:16:20.837Z,28.33
2023-01-25T10:19:22.799Z,49.53
2023-01-25T10:22:16.005Z,41.25
2023-01-25T10:25:14.325Z,29.42
2023-01-25T10:28:23.272Z,31.13
2023-01-25T10:31:20.973Z,22.23
2023-01-25T10:34:20.344Z,21.92
2023-01-25T10:40:13.200Z,20.50
2023-01-25T10:43:08.312Z,28.95
2023-01-25T10:45:58.110Z,18.77
2023-01-25T10:48:44.613Z,23.70
2023-01-25T10:51:33.726Z,30.05
2023-01-25T10:54:24.127Z,23.90
2023-01-25T10:57:18.471Z,33.95
2023-01-25T11:00:30.146Z,23.45
2023-01-25T11:03:23.612Z,24.67
2023-01-25T11:06:10.166Z,27.50
2023-01-25T11:08:57.341Z,19.08
2023-01-25T11:11:43.999Z,34.25
2023-01-25T11:14:32.701Z,26.17
2023-01-25T11:17:26.220Z,25.15
2023-01-25T11:20:20.826Z,27.35
2023-01-25T11:23:24.941Z,30.05
2023-01-25T11:26:19.622Z,27.73
2023-01-25T11:29:26.514Z,42.20
2023-01-25T11:32:21.707Z,28.85
2023-01-25T11:35:18.497Z,34.70
2023-01-25T11:38:16.182Z,35.90
2023-01-25T11:41:06.607Z,40.13
2023-01-25T11:44:05.770Z,32.85
2023-01-25T11:47:10.764Z,36.55
2023-01-25T11:50:18.935Z,39.08
2023-01-25T11:53:29.668Z,42.10
2023-01-25T11:56:32.732Z,30.95
2023-01-25T11:59:19.043Z,29.45
2023-01-25T12:02:42.947Z,57.78
2023-01-25T12:05:55.680Z,70.60
2023-01-25T12:08:42.468Z,30.52
2023-01-25T12:11:47.146Z,28.40
2023-01-25T12:15:09.368Z,27.23
2023-01-25T12:21:13.357Z,28.15
2023-01-25T12:24:13.752Z,26.20
2023-01-25T12:27:23.635Z,24.65
2023-01-25T12:30:30.075Z,27.00
2023-01-25T12:33:25.651Z,23.90
2023-01-25T12:36:33.356Z,23.83
2023-01-25T12:39:27.646Z,29.10
2023-01-25T12:42:38.322Z,32.55
2023-01-25T12:45:30.833Z,28.33
2023-01-25T12:48:28.491Z,23.48
2023-01-25T12:51:16.518Z,27.05
2023-01-25T12:54:19.400Z,28.08
2023-01-25T12:57:35.398Z,24.98
2023-01-25T13:00:46.180Z,27.10
2023-01-25T13:04:10.774Z,31.83
2023-01-25T13:07:01.936Z,31.85
2023-01-25T13:09:54.138Z,45.42
2023-01-25T13:13:03.332Z,30.63
2023-01-25T13:15:54.341Z,31.77
2023-01-25T13:18:41.565Z,32.08
2023-01-25T13:21:45.234Z,44.67
2023-01-25T13:24:33.867Z,28.10
2023-01-25T13:27:27.613Z,28.65
2023-01-25T13:30:38.553Z,40.67
2023-01-25T13:33:37.387Z,30.30
2023-01-25T13:36:46.128Z,42.10
2023-01-25T13:39:36.080Z,43.38
2023-01-25T13:42:22.914Z,36.88
2023-01-25T13:45:22.945Z,41.15
2023-01-25T13:48:10.416Z,41.42
2023-01-25T13:51:05.347Z,44.13
2023-01-25T13:54:04.497Z,33.88
2023-01-25T13:57:17.346Z,31.53
2023-01-25T14:00:11.669Z,25.13
2023-01-25T14:03:04.930Z,29.48
2023-01-25T14:05:57.417Z,28.90
2023-01-25T14:08:45.687Z,38.75
2023-01-25T14:11:32.418Z,40.17
2023-01-25T14:14:21.557Z,35.25
2023-01-25T14:17:09.299Z,38.22
2023-01-25T14:19:57.070Z,35.85
2023-01-25T14:22:47.933Z,43.60
2023-01-25T14:25:34.362Z,54.25
2023-01-25T14:28:21.113Z,54.70
2023-01-25T14:31:20.732Z,103.03
2023-01-25T14:34:17.338Z,122.63
2023-01-25T14:37:21.450Z,84.70
2023-01-25T14:40:12.839Z,108.68
2023-01-25T14:42:59.626Z,102.38
2023-01-25T14:45:46.418Z,85.15
2023-01-25T14:48:41.676Z,79.38
2023-01-25T14:51:30.274Z,43.95
2023-01-25T14:54:23.187Z,48.30
2023-01-25T14:57:30.223Z,46.70
2023-01-25T15:00:45.851Z,43.88
2023-01-25T15:03:32.336Z,56.83
2023-01-25T15:09:40.782Z,57.28
2023-01-25T15:12:29.547Z,58.75
2023-01-25T15:15:22.841Z,51.65
2023-01-25T15:18:53.911Z,55.25
2023-01-25T15:21:40.400Z,80.15
2023-01-25T15:24:30.076Z,116.15
2023-01-25T15:27:16.644Z,51.20
2023-01-25T15:30:03.824Z,41.65
2023-01-25T15:32:50.540Z,46.00
2023-01-25T15:35:37.248Z,59.13
2023-01-25T15:38:24.673Z,53.28
2023-01-25T15:41:12.641Z,59.22
2023-01-25T15:43:58.967Z,50.10
2023-01-25T15:46:50.690Z,50.67
2023-01-25T15:49:39.616Z,56.85
2023-01-25T15:52:26.519Z,63.25
2023-01-25T15:55:14.562Z,49.78
2023-01-25T15:58:02.401Z,61.70
2023-01-25T16:00:49.920Z,52.05
2023-01-25T16:03:41.677Z,50.20
2023-01-25T16:06:41.507Z,62.13
2023-01-25T16:09:31.176Z,93.93
2023-01-25T16:12:17.668Z,54.10
2023-01-25T16:15:06.178Z,72.03
2023-01-25T16:17:53.175Z,64.53
2023-01-25T16:20:40.961Z,61.30
2023-01-25T16:23:27.825Z,56.95
2023-01-25T16:26:23.851Z,73.20
2023-01-25T16:29:11.696Z,61.33
2023-01-25T16:31:58.836Z,149.85
2023-01-25T16:34:45.355Z,180.85
2023-01-25T16:37:32.079Z,211.35
2023-01-25T16:40:24.681Z,225.60
2023-01-25T16:43:11.235Z,118.75
2023-01-25T16:45:58.638Z,112.82
2023-01-25T16:48:46.963Z,80.03
2023-01-25T16:51:33.993Z,89.60
2023-01-25T16:54:21.336Z,76.65
2023-01-25T16:57:20.403Z,75.57
2023-01-25T17:00:10.805Z,108.28
2023-01-25T17:02:59.711Z,88.07
2023-01-25T17:05:46.256Z,62.95
2023-01-25T17:08:33.363Z,63.40
2023-01-25T17:11:19.675Z,60.80
2023-01-25T17:14:12.823Z,56.33
2023-01-25T17:17:02.046Z,68.70
2023-01-25T17:19:50.229Z,62.95
2023-01-25T17:22:38.133Z,86.47
2023-01-25T17:25:25.922Z,87.05
2023-01-25T17:28:12.699Z,67.38
2023-01-25T17:30:59.461Z,87.85
2023-01-25T17:33:47.519Z,91.55
2023-01-25T17:36:36.475Z,110.57
2023-01-25T17:39:23.542Z,93.95
2023-01-25T17:42:13.348Z,90.80
2023-01-25T17:45:04.074Z,72.78
2023-01-25T17:47:50.739Z,83.15
2023-01-25T17:50:37.966Z,72.32
2023-01-25T17:53:24.715Z,72.55
2023-01-25T17:56:15.458Z,87.85
2023-01-25T17:59:04.685Z,94.68
2023-01-25T18:01:51.423Z,76.18
2023-01-25T18:04:37.665Z,72.15
2023-01-25T18:07:24.401Z,71.20
2023-01-25T18:10:11.867Z,69.78
2023-01-25T18:13:04.641Z,72.85
2023-01-25T18:15:56.243Z,75.18
2023-01-25T18:18:50.681Z,67.75
2023-01-25T18:21:45.072Z,75.70
2023-01-25T18:24:39.200Z,83.55
2023-01-25T18:27:28.590Z,76.80
2023-01-25T18:33:33.690Z,60.05
2023-01-25T18:36:23.399Z,62.45
2023-01-25T18:39:16.127Z,65.20
2023-01-25T18:42:08.559Z,66.53
2023-01-25T18:44:57.979Z,80.75
2023-01-25T18:47:50.395Z,83.15
2023-01-25T18:50:41.679Z,103.57
2023-01-25T18:53:32.171Z,95.93
2023-01-25T18:56:21.344Z,93.95
2023-01-25T18:59:09.271Z,79.68
2023-01-25T19:01:56.104Z,91.10
2023-01-25T19:04:43.310Z,84.03
2023-01-25T19:07:30.193Z,80.63
2023-01-25T19:10:22.292Z,90.95
2023-01-25T19:13:09.940Z,96.28
2023-01-25T19:16:09.467Z,89.07
2023-01-25T19:18:56.423Z,100.47
2023-01-25T19:21:46.552Z,98.18
2023-01-25T19:24:33.680Z,93.85
2023-01-25T19:27:20.709Z,90.68
2023-01-25T19:30:08.400Z,94.72
2023-01-25T19:32:55.536Z,99.45
2023-01-25T19:35:42.354Z,98.40
2023-01-25T19:38:30.714Z,101.57
2023-01-25T19:41:20.518Z,96.78
2023-01-25T19:44:08.023Z,89.85
2023-01-25T19:46:54.768Z,107.18
2023-01-25T19:49:41.909Z,101.25
2023-01-25T19:52:28.901Z,113.53
2023-01-25T19:55:16.975Z,127.82
2023-01-25T19:58:03.787Z,169.20
2023-01-25T20:00:50.809Z,151.00
2023-01-25T20:03:37.721Z,124.53
2023-01-25T20:06:26.596Z,116.70
2023-01-25T20:09:18.710Z,129.00
2023-01-25T20:12:11.016Z,133.20
2023-01-25T20:14:58.035Z,132.10
2023-01-25T20:17:47.879Z,138.25
2023-01-25T20:20:34.981Z,134.77
2023-01-25T20:23:22.690Z,136.25
2023-01-25T20:26:19.747Z,133.68
2023-01-25T20:29:10.813Z,125.38
2023-01-25T20:31:58.487Z,122.03
2023-01-25T20:34:45.794Z,109.05
2023-01-25T20:37:32.694Z,102.45
2023-01-25T20:40:19.603Z,107.50
2023-01-25T20:43:10.428Z,116.43
2023-01-25T20:45:58.664Z,122.72
2023-01-25T20:48:46.289Z,126.32
2023-01-25T20:51:36.603Z,182.90
2023-01-25T20:54:24.763Z,162.00
2023-01-25T20:57:11.936Z,217.43
2023-01-25T20:59:58.331Z,196.35
2023-01-25T21:02:45.449Z,176.60
2023-01-25T21:05:32.077Z,184.57
2023-01-25T21:08:19.430Z,142.63
2023-01-25T21:11:09.473Z,148.70
2023-01-25T21:14:00.503Z,148.45
2023-01-25T21:16:47.408Z,123.40
2023-01-25T21:19:34.795Z,106.07
2023-01-25T21:22:21.978Z,129.90
2023-01-25T21:25:10.446Z,129.00
2023-01-25T21:27:58.211Z,113.80
2023-01-25T21:30:48.305Z,120.97
2023-01-25T21:33:36.917Z,118.95
2023-01-25T21:36:24.905Z,116.50
2023-01-25T21:39:11.741Z,173.57
2023-01-25T21:41:58.772Z,142.18
2023-01-25T21:45:04.340Z,121.00
2023-01-25T21:47:53.730Z,122.93
2023-01-25T21:51:01.431Z,457.83
2023-01-25T21:53:51.155Z,472.85
2023-01-25T21:56:38.115Z,270.77
2023-01-25T21:59:25.187Z,150.75
2023-01-25T22:02:14.180Z,174.05
2023-01-25T22:05:04.975Z,268.60
2023-01-25T22:07:54.196Z,222.18
2023-01-25T22:10:41.091Z,212.18
2023-01-25T22:13:30.874Z,173.88
2023-01-25T22:16:21.601Z,156.98
2023-01-25T22:19:08.139Z,179.43
2023-01-25T22:21:55.145Z,208.93
2023-01-25T22:24:44.618Z,153.20
2023-01-25T22:27:37.645Z,137.10
2023-01-25T22:30:26.911Z,117.93
2023-01-25T22:33:18.656Z,108.13
2023-01-25T22:36:05.523Z,111.00
2023-01-25T22:38:52.758Z,109.70
2023-01-25T22:41:39.107Z,141.43
2023-01-25T22:44:28.199Z,146.02
2023-01-25T22:47:14.353Z,225.80
2023-01-25T22:50:01.280Z,193.32
2023-01-25T22:52:49.114Z,158.15
2023-01-25T22:55:38.907Z,164.52
2023-01-25T22:58:25.268Z,167.75
2023-01-25T23:01:14.428Z,166.90
2023-01-25T23:04:02.382Z,181.23
2023-01-25T23:06:50.098Z,199.30
2023-01-25T23:09:36.361Z,144.57
2023-01-25T23:12:23.305Z,172.75
2023-01-25T23:15:15.820Z,164.18
2023-01-25T23:18:20.603Z,177.27
2023-01-25T23:21:07.350Z,160.93
2023-01-25T23:23:55.361Z,148.73
2023-01-25T23:26:46.701Z,160.20
2023-01-25T23:29:35.176Z,160.55
2023-01-25T23:32:24.173Z,176.23
2023-01-25T23:35:11.044Z,177.23
2023-01-25T23:38:00.673Z,170.35
2023-01-25T23:40:50.400Z,145.55
2023-01-25T23:43:37.223Z,159.52
2023-01-25T23:46:24.921Z,194.88
2023-01-25T23:49:11.302Z,178.85
2023-01-25T23:51:59.258Z,169.45
2023-01-25T23:54:48.453Z,172.93
2023-01-25T23:57:35.283Z,167.52
